Time;durP1;ratioP1;P1;durP2;ratioP2;P2;SDS_P1;SDS_P2;PMS_P1;PMS_P2;Temp;Humidity;BMP_temperature;BMP_pressure;BME280_temperature;BME280_humidity;BME280_pressure;Samples;Min_cycle;Max_cycle;Signal;HPM_P1;HPM_P2
2022/01/05 00:00:24;;;;;;;12.10;7.80;;;;;;;3.86;90.92;97729.40;108931;1277;138163;-55
2022/01/05 00:02:52;;;;;;;10.80;7.60;;;;;;;3.86;90.95;97723.16;109155;1276;22569;-55
2022/01/05 00:05:20;;;;;;;10.20;6.90;;;;;;;3.89;91.09;97718.81;108992;1276;139867;-55
2022/01/05 00:07:48;;;;;;;9.50;6.40;;;;;;;3.91;91.27;97716.33;109135;1276;23650;-55
2022/01/05 00:10:16;;;;;;;11.30;6.10;;;;;;;3.93;91.21;97718.98;109131;1276;22525;-55
2022/01/05 00:12:53;;;;;;;13.80;5.80;;;;;;;3.95;91.43;97718.09;108979;1276;138674;-55
2022/01/05 00:15:21;;;;;;;10.90;6.70;;;;;;;3.98;91.24;97719.35;109154;1276;23405;-55
2022/01/05 00:17:49;;;;;;;10.50;6.60;;;;;;;4.01;91.60;97715.33;109002;1276;138940;-56
2022/01/05 00:20:17;;;;;;;11.60;6.20;;;;;;;4.04;91.40;97711.19;109140;1276;22288;-56
2022/01/05 00:22:45;;;;;;;11.30;6.80;;;;;;;4.06;91.59;97702.58;109024;1276;138829;-56
2022/01/05 00:25:13;;;;;;;12.10;7.50;;;;;;;4.08;91.91;97692.19;109048;1276;153619;-55
2022/01/05 00:29:14;;;;;;;11.40;7.00;;;;;;;4.14;91.68;97695.94;101709;1310;545173;-54
2022/01/05 00:31:42;;;;;;;11.30;6.70;;;;;;;4.13;91.77;97692.56;103853;1290;22575;-54
2022/01/05 00:34:10;;;;;;;9.60;5.90;;;;;;;4.15;91.63;97691.55;103839;1287;22573;-54
2022/01/05 00:36:39;;;;;;;10.30;5.90;;;;;;;4.17;91.84;97684.98;108025;1286;139013;-55
2022/01/05 00:39:07;;;;;;;10.40;6.60;;;;;;;4.18;91.49;97680.65;108232;1287;22495;-55
2022/01/05 00:41:35;;;;;;;12.10;7.40;;;;;;;4.19;91.83;97680.54;108142;1287;138387;-55
2022/01/05 00:44:03;;;;;;;9.70;6.40;;;;;;;4.19;91.64;97673.54;108621;1281;118621;-55
2022/01/05 00:46:31;;;;;;;13.20;6.70;;;;;;;4.20;91.76;97667.45;108755;1280;23211;-55
2022/01/05 00:48:59;;;;;;;11.90;6.70;;;;;;;4.21;91.88;97668.54;108664;1281;137307;-55
2022/01/05 00:51:27;;;;;;;10.00;6.40;;;;;;;4.23;91.72;97668.44;108695;1281;22471;-55
2022/01/05 00:53:55;;;;;;;12.60;6.50;;;;;;;4.24;91.87;97665.21;108623;1281;138321;-55
2022/01/05 00:56:23;;;;;;;8.70;6.30;;;;;;;4.24;92.08;97658.27;108646;1284;23356;-55
2022/01/05 00:58:50;;;;;;;10.20;6.80;;;;;;;4.28;92.01;97654.13;108660;1281;138347;-55
2022/01/05 01:01:18;;;;;;;11.40;6.00;;;;;;;4.30;92.17;97647.89;108809;1281;23101;-56
2022/01/05 01:03:47;;;;;;;11.60;6.20;;;;;;;4.32;92.13;97645.04;108651;1282;22451;-55
2022/01/05 01:06:15;;;;;;;10.00;5.90;;;;;;;4.34;92.19;97643.31;108580;1281;137668;-55
2022/01/05 01:08:43;;;;;;;10.80;6.50;;;;;;;4.36;91.89;97642.56;108757;1281;23458;-55
2022/01/05 01:11:12;;;;;;;9.50;6.10;;;;;;;4.39;91.51;97638.00;108621;1281;138690;-55
2022/01/05 01:13:43;;;;;;;8.80;5.80;;;;;;;4.40;91.84;97634.88;108767;1281;22282;-55
2022/01/05 01:16:11;;;;;;;9.60;5.10;;;;;;;4.43;92.06;97630.91;108717;1281;22457;-56
2022/01/05 01:18:39;;;;;;;10.30;6.00;;;;;;;4.46;91.84;97627.09;108615;1281;137745;-55
2022/01/05 01:21:08;;;;;;;11.40;6.20;;;;;;;4.49;91.99;97629.83;108744;1281;22491;-56
2022/01/05 01:23:37;;;;;;;11.00;5.80;;;;;;;4.51;91.82;97622.17;108611;1281;139663;-55
2022/01/05 01:26:05;;;;;;;10.00;6.00;;;;;;;4.53;92.22;97619.11;108608;1282;22412;-56
2022/01/05 01:28:32;;;;;;;10.80;6.00;;;;;;;4.54;91.96;97615.02;108652;1281;23188;-56
2022/01/05 01:31:00;;;;;;;9.80;6.60;;;;;;;4.55;91.79;97610.38;108610;1281;139270;-56
2022/01/05 01:33:28;;;;;;;11.30;6.20;;;;;;;4.56;91.70;97603.38;109145;1277;22650;-56
2022/01/05 01:35:57;;;;;;;13.60;7.30;;;;;;;4.58;91.69;97596.27;109083;1277;139021;-56
2022/01/05 01:38:25;;;;;;;11.30;6.40;;;;;;;4.60;91.95;97590.12;109194;1277;22518;-56
2022/01/05 01:40:52;;;;;;;10.20;5.70;;;;;;;4.60;91.50;97582.35;109071;1277;138723;-56
2022/01/05 01:43:20;;;;;;;11.30;5.90;;;;;;;4.61;91.58;97581.59;109179;1277;23417;-56
2022/01/05 01:45:48;;;;;;;11.30;6.20;;;;;;;4.60;91.54;97573.77;109042;1277;23633;-56
2022/01/05 01:48:16;;;;;;;9.20;6.10;;;;;;;4.62;91.50;97565.34;109075;1277;137949;-56
2022/01/05 01:50:44;;;;;;;9.30;6.60;;;;;;;4.63;91.70;97555.96;109141;1277;22483;-56
2022/01/05 01:53:12;;;;;;;9.10;6.10;;;;;;;4.64;91.64;97556.33;109058;1277;138272;-55
2022/01/05 01:55:40;;;;;;;10.60;5.80;;;;;;;4.66;91.53;97558.34;109145;1277;23642;-56
2022/01/05 01:58:08;;;;;;;10.10;6.50;;;;;;;4.66;91.59;97544.75;109216;1277;22435;-56
2022/01/05 02:00:36;;;;;;;11.00;6.40;;;;;;;4.67;91.60;97546.53;108928;1277;138917;-56
2022/01/05 02:03:04;;;;;;;11.80;5.90;;;;;;;4.68;91.27;97543.67;109184;1277;24055;-54
2022/01/05 02:05:36;;;;;;;11.10;6.50;;;;;;;4.69;91.21;97542.48;109081;1277;138077;-55
2022/01/05 02:08:04;;;;;;;7.70;5.50;;;;;;;4.70;91.24;97540.71;109133;1277;22231;-55
2022/01/05 02:10:33;;;;;;;12.30;6.20;;;;;;;4.70;91.37;97535.48;109190;1277;22512;-55
2022/01/05 02:13:01;;;;;;;10.30;6.20;;;;;;;4.70;91.41;97532.35;109049;1277;138236;-55
2022/01/05 02:15:35;;;;;;;10.00;6.20;;;;;;;4.71;91.04;97530.41;109183;1277;22423;-55
2022/01/05 02:20:31;;;;;;;9.40;5.10;;;;;;;4.72;90.87;97528.69;109175;1277;23154;-55
2022/01/05 02:22:59;;;;;;;11.50;6.40;;;;;;;4.72;91.19;97528.63;109039;1277;137756;-55
2022/01/05 02:25:27;;;;;;;15.20;6.20;;;;;;;4.73;91.39;97527.02;109224;1276;22462;-55
2022/01/05 02:27:56;;;;;;;12.10;6.90;;;;;;;4.74;91.32;97529.56;109155;1277;22496;-56
2022/01/05 02:30:28;;;;;;;10.60;5.90;;;;;;;4.76;91.34;97520.66;109125;1277;138387;-56
2022/01/05 02:32:56;;;;;;;11.30;6.00;;;;;;;4.77;90.84;97523.06;109208;1277;22413;-56
2022/01/05 02:35:24;;;;;;;14.80;6.20;;;;;;;4.78;91.20;97512.82;109027;1277;139216;-56
2022/01/05 02:37:53;;;;;;;11.70;6.80;;;;;;;4.79;91.10;97515.95;109191;1277;22579;-56
2022/01/05 02:40:22;;;;;;;9.80;6.30;;;;;;;4.81;91.11;97516.64;109205;1277;23369;-55
2022/01/05 02:42:52;;;;;;;11.60;6.00;;;;;;;4.83;90.98;97509.80;109091;1277;138367;-56
2022/01/05 02:45:21;;;;;;;10.20;6.40;;;;;;;4.84;90.78;97504.89;109123;1277;22715;-55
2022/01/05 02:47:49;;;;;;;11.40;5.90;;;;;;;4.85;90.84;97499.39;109062;1277;139106;-55
2022/01/05 02:50:17;;;;;;;9.40;6.20;;;;;;;4.87;90.85;97494.70;109147;1277;23148;-55
2022/01/05 02:52:45;;;;;;;14.00;6.90;;;;;;;4.90;90.70;97500.69;109083;1277;137764;-55
2022/01/05 02:55:13;;;;;;;13.40;5.70;;;;;;;4.92;90.67;97505.79;109210;1277;22420;-56
2022/01/05 02:57:41;;;;;;;13.50;5.90;;;;;;;4.94;90.56;97505.46;109207;1277;22477;-56
2022/01/05 03:00:10;;;;;;;9.60;5.30;;;;;;;4.96;90.72;97505.31;109059;1277;139026;-56
2022/01/05 03:02:38;;;;;;;9.00;5.60;;;;;;;4.99;90.45;97497.98;109200;1277;22621;-56
2022/01/05 03:05:07;;;;;;;9.20;4.90;;;;;;;5.01;90.32;97500.35;108898;1277;138703;-56
2022/01/05 03:07:39;;;;;;;7.90;5.10;;;;;;;5.02;90.29;97498.30;109179;1277;24397;-56
2022/01/05 03:10:08;;;;;;;10.60;5.50;;;;;;;5.04;90.21;97499.70;109172;1277;22460;-56
2022/01/05 03:12:38;;;;;;;8.50;5.30;;;;;;;5.05;90.07;97499.30;109109;1277;137757;-56
2022/01/05 03:15:06;;;;;;;10.70;5.70;;;;;;;5.08;90.26;97503.40;109148;1277;23610;-56
2022/01/05 03:17:34;;;;;;;8.80;5.30;;;;;;;5.10;89.79;97500.50;109016;1277;138457;-56
2022/01/05 03:20:03;;;;;;;7.90;5.00;;;;;;;5.12;89.70;97507.30;109206;1277;22448;-56
2022/01/05 03:22:30;;;;;;;7.70;5.30;;;;;;;5.14;89.80;97509.89;109200;1277;22479;-56
2022/01/05 03:24:58;;;;;;;8.80;5.10;;;;;;;5.16;89.91;97507.52;109072;1277;137787;-56
2022/01/05 03:27:26;;;;;;;9.60;5.70;;;;;;;5.19;89.57;97502.33;109167;1277;23344;-56
2022/01/05 03:29:54;;;;;;;9.10;5.50;;;;;;;5.19;89.70;97497.35;109033;1277;137915;-55
2022/01/05 03:32:24;;;;;;;7.70;5.00;;;;;;;5.21;89.45;97497.07;109130;1277;22571;-55
2022/01/05 03:34:52;;;;;;;12.50;6.50;;;;;;;5.23;89.16;97495.44;109062;1277;138941;-55
2022/01/05 03:37:20;;;;;;;9.50;5.80;;;;;;;5.25;89.48;97500.63;105072;1277;25477;-54
2022/01/05 03:39:48;;;;;;;7.90;5.10;;;;;;;5.27;89.13;97502.31;104627;1278;22955;-53
2022/01/05 03:42:16;;;;;;;9.50;5.80;;;;;;;5.28;88.91;97509.75;104524;1277;139407;-56
2022/01/05 03:44:44;;;;;;;8.50;5.60;;;;;;;5.29;89.16;97509.92;104715;1277;24297;-56
2022/01/05 03:47:12;;;;;;;10.20;6.50;;;;;;;5.31;89.00;97509.66;104606;1277;138728;-54
2022/01/05 03:49:39;;;;;;;9.30;5.20;;;;;;;5.33;88.84;97512.40;104555;1278;22608;-54
2022/01/05 03:52:07;;;;;;;9.30;5.20;;;;;;;5.34;88.95;97508.87;104665;1277;25329;-54
2022/01/05 03:54:35;;;;;;;10.20;5.40;;;;;;;5.35;89.09;97508.54;104520;1280;138921;-54
2022/01/05 03:57:04;;;;;;;8.10;4.90;;;;;;;5.37;88.79;97501.84;104749;1277;26076;-56
2022/01/05 03:59:32;;;;;;;8.10;5.00;;;;;;;5.37;88.68;97497.20;109012;1277;138721;-55
2022/01/05 04:02:00;;;;;;;10.70;4.90;;;;;;;5.37;88.22;97488.66;109101;1277;22530;-55
2022/01/05 04:04:28;;;;;;;9.20;4.80;;;;;;;5.38;88.43;97484.66;109174;1277;22424;-55
2022/01/05 04:06:56;;;;;;;12.50;6.10;;;;;;;5.38;88.47;97476.83;109038;1277;137854;-55
2022/01/05 04:09:24;;;;;;;12.50;6.00;;;;;;;5.40;88.39;97474.08;109158;1277;23696;-55
2022/01/05 04:11:52;;;;;;;9.40;6.20;;;;;;;5.41;88.65;97466.73;109081;1277;139027;-54
2022/01/05 04:14:20;;;;;;;12.20;6.10;;;;;;;5.41;88.50;97465.81;108948;1278;22433;-56
2022/01/05 04:16:47;;;;;;;9.90;6.00;;;;;;;5.41;88.88;97470.08;106078;1277;138993;-55
2022/01/05 04:19:16;;;;;;;12.90;7.20;;;;;;;5.42;88.78;97465.05;104864;1277;25422;-55
2022/01/05 04:21:43;;;;;;;10.50;6.30;;;;;;;5.43;88.41;97467.60;104748;1278;24139;-56
2022/01/05 04:24:18;;;;;;;12.30;7.30;;;;;;;5.44;88.69;97465.27;104564;1278;139259;-55
2022/01/05 04:26:45;;;;;;;11.80;7.00;;;;;;;5.43;88.75;97468.95;104765;1277;25438;-55
2022/01/05 04:29:13;;;;;;;10.70;6.60;;;;;;;5.43;88.82;97470.89;104551;1278;139105;-56
2022/01/05 04:31:41;;;;;;;10.80;6.70;;;;;;;5.44;88.83;97474.95;104727;1277;25356;-56
2022/01/05 04:34:09;;;;;;;10.60;6.20;;;;;;;5.43;89.17;97471.70;109352;1274;24448;-56
2022/01/05 04:36:57;;;;;;;;;;;;;;;5.44;88.87;97485.80;109248;1274;137916;-57
2022/01/05 04:39:25;;;;;;;9.50;5.50;;;;;;;5.44;88.89;97491.68;109313;1274;22470;-57
2022/01/05 04:42:01;;;;;;;9.20;6.00;;;;;;;5.45;88.90;97506.70;109327;1274;138112;-56
2022/01/05 04:44:30;;;;;;;8.00;4.90;;;;;;;5.47;88.78;97503.83;109306;1274;22443;-56
2022/01/05 04:46:58;;;;;;;10.20;6.20;;;;;;;5.49;88.84;97496.99;105874;1274;139888;-56
2022/01/05 04:49:26;;;;;;;9.80;5.50;;;;;;;5.52;88.76;97485.38;104891;1274;24272;-55
2022/01/05 04:51:54;;;;;;;14.40;5.80;;;;;;;5.54;88.77;97484.62;104981;1274;24237;-54
2022/01/05 04:54:22;;;;;;;9.20;5.60;;;;;;;5.56;89.07;97483.48;104788;1274;139087;-54
2022/01/05 04:56:50;;;;;;;7.60;5.00;;;;;;;5.58;88.85;97486.56;104884;1274;24313;-55
2022/01/05 04:59:18;;;;;;;9.00;5.70;;;;;;;5.60;88.73;97490.77;104829;1274;138982;-55
2022/01/05 05:01:45;;;;;;;10.90;5.90;;;;;;;5.61;88.97;97485.21;105010;1274;22586;-56
2022/01/05 05:04:14;;;;;;;11.00;6.00;;;;;;;5.62;88.67;97485.09;104965;1274;22552;-56
2022/01/05 05:06:42;;;;;;;6.90;5.00;;;;;;;5.63;88.59;97483.88;104872;1274;138791;-57
2022/01/05 05:09:10;;;;;;;8.10;5.40;;;;;;;5.64;88.78;97482.04;104989;1274;25512;-55
2022/01/05 05:11:38;;;;;;;9.30;5.20;;;;;;;5.66;88.58;97481.92;104854;1274;138772;-55
2022/01/05 05:14:06;;;;;;;8.80;5.60;;;;;;;5.67;88.69;97479.92;104878;1274;22596;-55
2022/01/05 05:16:33;;;;;;;10.60;6.70;;;;;;;5.68;88.34;97472.09;105069;1274;26454;-56
2022/01/05 05:19:01;;;;;;;13.50;6.50;;;;;;;5.69;88.69;97469.23;109260;1274;138829;-56
2022/01/05 05:21:30;;;;;;;13.20;6.60;;;;;;;5.71;88.32;97474.20;109421;1274;23626;-56
2022/01/05 05:23:58;;;;;;;11.60;6.90;;;;;;;5.73;88.26;97487.16;109304;1274;141616;-56
2022/01/05 05:26:25;;;;;;;8.60;6.20;;;;;;;5.75;88.37;97492.55;109410;1274;22477;-55
2022/01/05 05:28:53;;;;;;;8.70;5.10;;;;;;;5.78;87.71;97491.98;109273;1273;139041;-55
2022/01/05 05:31:21;;;;;;;11.20;5.40;;;;;;;5.81;87.86;97495.75;109285;1274;22670;-55
2022/01/05 05:33:49;;;;;;;8.30;4.90;;;;;;;5.83;88.15;97496.34;109378;1273;22458;-56
2022/01/05 05:36:17;;;;;;;9.60;5.60;;;;;;;5.86;87.50;97501.42;109274;1274;138768;-55
2022/01/05 05:38:45;;;;;;;8.30;4.80;;;;;;;5.89;87.54;97516.52;109389;1274;22443;-56
2022/01/05 05:41:13;;;;;;;9.30;5.60;;;;;;;5.92;87.16;97522.39;109297;1274;138562;-55
2022/01/05 05:43:42;;;;;;;8.90;5.70;;;;;;;5.94;87.21;97524.64;109370;1274;22483;-56
2022/01/05 05:46:09;;;;;;;9.20;5.90;;;;;;;5.97;87.16;97528.27;109453;1274;23334;-56
2022/01/05 05:48:42;;;;;;;10.80;6.20;;;;;;;5.99;87.15;97538.96;109262;1274;138970;-56
2022/01/05 05:51:10;;;;;;;7.50;5.40;;;;;;;6.01;86.89;97542.31;109329;1274;22536;-56
2022/01/05 05:53:38;;;;;;;9.20;6.20;;;;;;;6.04;86.82;97544.63;109311;1274;138533;-56
2022/01/05 05:56:07;;;;;;;12.00;6.20;;;;;;;6.06;86.82;97539.20;109414;1274;22559;-56
2022/01/05 05:58:35;;;;;;;9.40;6.10;;;;;;;6.07;86.55;97542.80;109338;1274;22490;-56
2022/01/05 06:01:04;;;;;;;9.30;5.50;;;;;;;6.09;86.67;97543.66;109260;1274;139964;-56
2022/01/05 06:03:32;;;;;;;11.50;6.30;;;;;;;6.11;86.43;97543.55;109349;1274;22490;-56
2022/01/05 06:06:00;;;;;;;12.20;5.80;;;;;;;6.13;86.00;97551.33;109280;1274;137958;-56
2022/01/05 06:08:28;;;;;;;8.20;5.20;;;;;;;6.13;86.13;97551.77;109426;1274;22379;-56
2022/01/05 06:10:56;;;;;;;9.40;5.80;;;;;;;6.16;86.17;97569.77;109285;1274;140024;-56
2022/01/05 06:13:24;;;;;;;7.80;4.90;;;;;;;6.19;86.10;97569.48;109345;1274;22717;-56
2022/01/05 06:15:52;;;;;;;6.90;4.40;;;;;;;6.21;85.86;97560.32;109411;1274;22234;-56
2022/01/05 06:18:22;;;;;;;8.50;4.30;;;;;;;6.24;85.86;97552.73;109227;1274;137854;-56
2022/01/05 06:20:51;;;;;;;7.20;4.40;;;;;;;6.28;86.11;97558.56;109395;1274;22482;-56
2022/01/05 06:23:19;;;;;;;10.70;4.90;;;;;;;6.32;85.98;97560.55;109260;1274;139379;-55
2022/01/05 06:25:46;;;;;;;9.50;5.00;;;;;;;6.37;85.70;97568.35;109363;1274;22439;-56
2022/01/05 06:28:14;;;;;;;7.90;4.60;;;;;;;6.41;85.85;97572.12;109387;1274;22781;-56
2022/01/05 06:30:42;;;;;;;7.50;4.70;;;;;;;6.45;85.63;97573.52;109258;1274;139273;-56
2022/01/05 06:33:10;;;;;;;8.50;5.40;;;;;;;6.51;85.55;97569.58;109349;1274;22442;-56
2022/01/05 06:35:38;;;;;;;13.70;7.90;;;;;;;6.55;85.52;97571.98;109304;1273;138621;-57
2022/01/05 06:38:06;;;;;;;11.50;5.90;;;;;;;6.61;85.22;97576.83;109365;1274;22519;-56
2022/01/05 06:40:34;;;;;;;8.20;5.50;;;;;;;6.67;85.46;97583.65;109503;1273;22664;-56
2022/01/05 06:43:02;;;;;;;6.60;4.60;;;;;;;6.72;85.27;97583.95;109217;1274;138960;-56
2022/01/05 06:45:30;;;;;;;10.00;5.10;;;;;;;6.78;85.10;97585.48;109483;1273;23204;-56
2022/01/05 06:47:58;;;;;;;7.80;4.50;;;;;;;6.84;85.04;97589.23;109356;1272;138592;-56
2022/01/05 06:50:26;;;;;;;10.00;5.30;;;;;;;6.89;85.04;97593.43;109443;1273;23357;-56
2022/01/05 06:52:57;;;;;;;7.70;4.50;;;;;;;6.96;84.85;97605.50;109324;1273;139749;-56
2022/01/05 06:55:25;;;;;;;9.00;4.90;;;;;;;7.01;84.63;97601.47;109495;1274;22774;-56
2022/01/05 06:57:53;;;;;;;9.10;4.30;;;;;;;7.07;84.41;97603.09;109440;1273;22499;-56
2022/01/05 07:00:23;;;;;;;6.70;4.20;;;;;;;7.12;84.37;97603.77;109365;1273;138858;-56
2022/01/05 07:02:51;;;;;;;9.70;5.20;;;;;;;7.18;84.12;97603.79;109453;1272;22416;-56
2022/01/05 07:05:20;;;;;;;6.60;4.90;;;;;;;7.23;83.91;97603.40;109385;1273;138938;-56
2022/01/05 07:07:48;;;;;;;7.50;4.50;;;;;;;7.27;84.10;97602.02;109349;1274;22444;-56
2022/01/05 07:10:17;;;;;;;7.60;4.30;;;;;;;7.31;83.57;97602.42;109424;1273;23197;-55
2022/01/05 07:12:46;;;;;;;9.60;4.60;;;;;;;7.34;83.73;97600.45;109238;1274;137850;-56
2022/01/05 07:15:15;;;;;;;5.80;4.80;;;;;;;7.38;83.56;97602.08;109383;1273;22629;-56
2022/01/05 07:17:44;;;;;;;5.30;3.90;;;;;;;7.43;83.46;97613.96;109236;1274;139117;-55
2022/01/05 07:20:13;;;;;;;8.40;4.30;;;;;;;7.48;83.38;97624.23;109476;1274;22447;-55
2022/01/05 07:22:41;;;;;;;8.80;4.60;;;;;;;7.52;83.23;97640.45;109441;1273;22495;-55
2022/01/05 07:25:09;;;;;;;6.20;4.10;;;;;;;7.56;83.26;97641.87;109347;1271;139156;-55
2022/01/05 07:27:39;;;;;;;10.90;4.00;;;;;;;7.59;82.98;97645.69;109401;1273;22442;-55
2022/01/05 07:30:08;;;;;;;7.60;4.70;;;;;;;7.62;83.00;97648.60;109311;1274;139077;-55
2022/01/05 07:32:36;;;;;;;6.90;4.80;;;;;;;7.65;82.96;97644.17;109378;1274;22438;-55
2022/01/05 07:35:05;;;;;;;6.50;4.50;;;;;;;7.66;82.72;97642.05;109247;1274;138469;-55
2022/01/05 07:37:32;;;;;;;7.40;4.30;;;;;;;7.68;82.59;97634.39;109405;1273;23168;-55
2022/01/05 07:40:00;;;;;;;6.70;4.80;;;;;;;7.68;82.34;97639.05;109383;1274;22560;-56
2022/01/05 07:42:33;;;;;;;8.00;4.50;;;;;;;7.69;82.39;97637.58;109279;1274;137836;-56
2022/01/05 07:45:05;;;;;;;6.20;3.90;;;;;;;7.70;82.39;97643.48;109413;1274;23270;-56
2022/01/05 07:47:33;;;;;;;8.00;4.40;;;;;;;7.72;82.21;97643.52;109261;1274;138204;-56
2022/01/05 07:50:02;;;;;;;8.60;3.70;;;;;;;7.71;82.46;97635.71;109388;1274;22497;-56
2022/01/05 07:52:31;;;;;;;7.80;5.20;;;;;;;7.73;82.36;97641.29;109362;1274;23523;-57
2022/01/05 07:55:01;;;;;;;7.60;4.50;;;;;;;7.74;82.28;97637.43;109241;1274;138132;-54
2022/01/05 07:57:29;;;;;;;12.70;4.50;;;;;;;7.76;82.25;97636.98;109420;1273;23836;-55
2022/01/05 07:59:57;;;;;;;8.50;4.30;;;;;;;7.78;82.37;97646.50;109249;1274;138494;-55
2022/01/05 08:02:25;;;;;;;7.40;4.70;;;;;;;7.80;82.15;97650.80;109367;1274;22525;-55
2022/01/05 08:04:53;;;;;;;7.50;4.90;;;;;;;7.82;82.27;97656.27;109304;1274;138519;-56
2022/01/05 08:07:21;;;;;;;7.50;4.90;;;;;;;7.84;82.15;97661.56;109408;1274;22259;-55
2022/01/05 08:09:49;;;;;;;10.20;4.80;;;;;;;7.86;82.15;97673.54;109343;1274;22466;-55
2022/01/05 08:12:17;;;;;;;6.70;4.80;;;;;;;7.86;82.17;97676.83;109301;1274;138882;-56
2022/01/05 08:14:45;;;;;;;6.20;4.60;;;;;;;7.89;82.17;97686.85;109422;1274;22437;-55
2022/01/05 08:17:14;;;;;;;7.00;4.30;;;;;;;7.91;82.29;97683.20;109276;1274;138571;-55
2022/01/05 08:19:42;;;;;;;6.10;4.70;;;;;;;7.94;82.22;97684.83;109361;1274;23414;-56
2022/01/05 08:22:11;;;;;;;7.70;5.00;;;;;;;7.96;82.09;97683.67;109408;1274;22436;-56
2022/01/05 08:24:39;;;;;;;8.40;5.30;;;;;;;7.98;82.19;97682.68;109214;1274;138252;-57
2022/01/05 08:27:07;;;;;;;10.70;6.30;;;;;;;8.01;82.15;97686.13;109396;1274;22528;-55
2022/01/05 08:29:35;;;;;;;9.60;5.60;;;;;;;8.03;82.11;97685.67;109253;1274;139490;-55
2022/01/05 08:32:04;;;;;;;12.70;6.50;;;;;;;8.06;82.23;97687.71;109417;1274;22716;-55
2022/01/05 08:34:32;;;;;;;12.80;6.70;;;;;;;8.09;82.14;97686.69;109394;1274;22431;-55
2022/01/05 08:37:01;;;;;;;10.20;5.90;;;;;;;8.13;82.02;97687.91;109259;1274;138439;-55
2022/01/05 08:39:29;;;;;;;8.30;6.00;;;;;;;8.17;82.01;97682.34;109342;1274;22588;-55
2022/01/05 08:41:57;;;;;;;10.10;6.30;;;;;;;8.20;81.92;97685.30;109312;1274;139106;-55
2022/01/05 08:44:25;;;;;;;10.10;5.50;;;;;;;8.23;81.92;97683.79;109301;1271;22450;-55
2022/01/05 08:46:52;;;;;;;11.20;6.10;;;;;;;8.26;81.86;97678.00;109282;1274;138122;-55
2022/01/05 08:49:20;;;;;;;8.50;5.60;;;;;;;8.28;81.73;97669.69;109399;1274;22484;-54
2022/01/05 08:51:48;;;;;;;11.10;6.60;;;;;;;8.30;81.66;97677.15;109380;1274;23296;-55
2022/01/05 08:54:17;;;;;;;9.70;7.10;;;;;;;8.34;81.64;97676.93;109253;1274;139564;-56
2022/01/05 08:56:44;;;;;;;12.10;8.20;;;;;;;8.39;81.75;97674.48;109426;1274;22577;-55
2022/01/05 08:59:13;;;;;;;11.60;8.40;;;;;;;8.45;81.73;97671.96;109299;1274;138865;-55
2022/01/05 09:01:43;;;;;;;13.30;8.20;;;;;;;8.54;81.51;97668.65;109378;1274;22429;-55
2022/01/05 09:04:11;;;;;;;10.00;7.00;;;;;;;8.62;81.48;97671.29;109383;1274;22433;-55
2022/01/05 09:06:39;;;;;;;10.30;6.60;;;;;;;8.69;81.09;97672.53;109268;1274;137824;-55
2022/01/05 09:09:07;;;;;;;10.90;7.20;;;;;;;8.78;80.90;97667.92;109375;1274;22433;-55
2022/01/05 09:11:35;;;;;;;9.70;6.90;;;;;;;8.86;80.80;97667.27;109293;1274;139335;-55
2022/01/05 09:14:02;;;;;;;7.90;5.40;;;;;;;8.93;80.39;97668.09;109351;1274;22560;-55
2022/01/05 09:16:32;;;;;;;9.50;5.40;;;;;;;9.00;80.04;97667.34;109413;1273;22442;-55
2022/01/05 09:19:00;;;;;;;8.60;5.90;;;;;;;9.07;79.04;97669.88;109342;1274;138914;-55
2022/01/05 09:21:28;;;;;;;8.50;5.80;;;;;;;9.11;78.77;97677.66;109413;1273;22454;-56
2022/01/05 09:23:56;;;;;;;9.50;5.90;;;;;;;9.14;78.71;97678.34;109277;1273;139490;-55
2022/01/05 09:26:24;;;;;;;8.40;5.60;;;;;;;9.17;78.54;97686.27;109396;1274;22561;-55
2022/01/05 09:28:52;;;;;;;7.10;5.10;;;;;;;9.19;78.45;97686.00;109274;1274;138015;-58
2022/01/05 09:31:20;;;;;;;8.60;5.50;;;;;;;9.19;78.12;97685.17;109310;1274;22478;-55
2022/01/05 09:33:48;;;;;;;11.70;5.30;;;;;;;9.18;77.86;97685.41;109356;1274;22529;-55
2022/01/05 09:36:20;;;;;;;8.80;6.00;;;;;;;9.17;77.23;97692.01;109302;1274;139584;-54
2022/01/05 09:44:09;;;;;;;6.80;5.00;;;;;;;9.13;76.94;97712.04;109408;1274;23223;-55
2022/01/05 09:46:37;;;;;;;6.90;5.40;;;;;;;9.11;76.99;97715.96;109405;1274;23263;-55
2022/01/05 09:49:10;;;;;;;8.00;5.70;;;;;;;9.10;76.81;97719.52;109321;1273;138543;-55
2022/01/05 09:51:41;;;;;;;8.20;5.80;;;;;;;9.09;76.85;97726.90;109449;1274;23502;-55
2022/01/05 09:54:09;;;;;;;9.60;5.40;;;;;;;9.07;76.98;97735.94;109286;1274;138314;-55
2022/01/05 09:56:58;;;;;;;9.60;6.00;;;;;;;9.04;76.88;97735.05;109402;1274;22487;-54
2022/01/05 09:59:32;;;;;;;8.10;5.60;;;;;;;9.01;76.66;97741.98;109310;1274;138055;-55
2022/01/05 10:02:00;;;;;;;8.10;5.10;;;;;;;8.96;76.67;97746.27;109505;1274;23241;-55
2022/01/05 10:04:28;;;;;;;7.00;4.90;;;;;;;8.94;76.86;97750.87;109395;1274;22456;-55
2022/01/05 10:06:56;;;;;;;7.10;5.20;;;;;;;8.92;76.93;97753.19;109271;1274;138769;-55
2022/01/05 10:09:45;;;;;;;9.40;5.90;;;;;;;8.89;76.94;97763.32;109426;1273;22453;-55
2022/01/05 10:12:13;;;;;;;12.60;6.20;;;;;;;8.86;76.91;97763.56;109220;1274;138289;-55
2022/01/05 10:14:43;;;;;;;11.60;6.70;;;;;;;8.85;76.96;97770.85;109475;1273;22546;-56
2022/01/05 10:17:14;;;;;;;8.80;6.30;;;;;;;8.84;77.02;97770.53;109354;1274;138019;-56
2022/01/05 10:19:42;;;;;;;9.80;6.50;;;;;;;8.84;77.17;97774.16;109465;1273;22515;-56
2022/01/05 10:22:33;;;;;;;11.40;6.40;;;;;;;8.86;77.02;97775.13;109475;1274;22620;-56
2022/01/05 10:25:22;;;;;;;8.60;5.70;;;;;;;8.88;76.79;97773.65;109369;1274;138403;-56
2022/01/05 10:28:01;;;;;;;9.80;5.40;;;;;;;8.88;76.58;97776.03;109445;1274;22462;-56
2022/01/05 10:30:40;;;;;;;9.50;5.60;;;;;;;8.88;76.44;97775.98;109207;1274;139682;-56
2022/01/05 10:33:09;;;;;;;9.70;5.40;;;;;;;8.88;76.15;97775.23;109392;1274;23295;-55
2022/01/05 10:35:37;;;;;;;7.20;4.90;;;;;;;8.87;75.63;97775.40;109230;1274;138468;-55
2022/01/05 10:38:12;;;;;;;8.60;5.40;;;;;;;8.86;75.53;97772.14;109173;1277;22495;-55
2022/01/05 10:40:42;;;;;;;7.70;5.60;;;;;;;8.86;75.51;97776.98;109422;1274;22538;-55
2022/01/05 10:43:11;;;;;;;8.80;5.70;;;;;;;8.87;75.35;97776.59;109288;1274;139144;-55
2022/01/05 10:45:43;;;;;;;9.00;6.10;;;;;;;8.87;75.42;97775.34;109391;1274;22764;-55
2022/01/05 10:48:15;;;;;;;8.50;5.80;;;;;;;8.88;75.50;97774.36;109313;1274;139005;-55
2022/01/05 10:50:45;;;;;;;7.00;5.30;;;;;;;8.86;75.30;97768.77;109308;1274;22572;-56
2022/01/05 10:53:15;;;;;;;8.30;5.40;;;;;;;8.86;75.38;97767.04;109266;1274;139786;-56
2022/01/05 10:55:44;;;;;;;6.20;5.00;;;;;;;8.85;75.37;97767.38;109394;1274;22411;-55
2022/01/05 10:58:15;;;;;;;7.60;5.40;;;;;;;8.85;75.37;97764.98;109279;1274;22483;-56
2022/01/05 11:00:50;;;;;;;8.90;5.40;;;;;;;8.84;75.71;97765.54;109223;1275;137978;-56
2022/01/05 11:03:26;;;;;;;5.90;4.60;;;;;;;8.84;75.80;97768.14;109312;1274;23623;-57
2022/01/05 11:06:08;;;;;;;9.20;5.40;;;;;;;8.85;75.98;97765.64;109216;1274;138169;-55
2022/01/05 11:08:48;;;;;;;9.60;6.50;;;;;;;8.87;75.91;97767.58;109376;1273;22476;-56
2022/01/05 11:11:36;;;;;;;8.80;5.60;;;;;;;8.91;75.99;97770.30;109272;1274;139963;-55
2022/01/05 11:14:27;;;;;;;8.20;5.80;;;;;;;8.94;76.00;97770.04;109301;1275;22490;-56
2022/01/05 11:16:57;;;;;;;9.70;6.00;;;;;;;8.99;76.17;97768.63;109284;1274;138284;-56
2022/01/05 11:19:32;;;;;;;8.30;5.60;;;;;;;9.02;75.63;97774.89;109353;1274;22457;-56
2022/01/05 11:22:12;;;;;;;8.80;5.90;;;;;;;9.04;75.52;97780.95;109371;1274;22482;-56
2022/01/05 11:24:41;;;;;;;9.30;6.20;;;;;;;9.07;75.47;97786.41;109308;1272;139043;-55
2022/01/05 11:27:11;;;;;;;12.20;7.10;;;;;;;9.10;75.47;97788.91;109502;1274;22653;-55
2022/01/05 11:29:39;;;;;;;10.50;6.30;;;;;;;9.14;74.94;97795.11;109339;1273;138843;-55
2022/01/05 11:32:09;;;;;;;7.70;4.90;;;;;;;9.14;74.39;97798.42;109360;1274;23405;-55
2022/01/05 11:34:42;;;;;;;7.30;5.20;;;;;;;9.14;74.44;97799.13;109501;1273;22504;-57
2022/01/05 11:37:10;;;;;;;11.00;6.00;;;;;;;9.13;74.09;97796.91;109355;1274;138055;-55
2022/01/05 11:39:52;;;;;;;6.10;5.20;;;;;;;9.12;74.12;97799.14;109447;1274;22468;-55
2022/01/05 11:42:31;;;;;;;12.60;6.40;;;;;;;9.10;74.30;97803.79;109381;1273;138939;-55
2022/01/05 11:44:59;;;;;;;9.10;5.60;;;;;;;9.08;74.09;97804.81;109415;1273;23114;-55